Center Point, Louisiana
Current Conditions -  °F | °C
As of 5:53 PM on Friday 24 Oct 2014 (Local Time) from KESF Reporting Station
Clear Clear  
Wind Chill: 66°   Ceiling: Unl
Heat Index: 66°   Visibility: 10mi
Dew Point: 55°   Wind: 3mph
Humidity: 68%   Direction: 340°NNW
Pressure: 30.1"   Gusts: NA
Location:  31.25°N, 92.21°W
Report Text: KESF 242253Z AUTO 34003KT 10SM CLR 19/13 A3010 RMK AO2 SLP191 T01890128
Loading
Personal Weather Stations






























Interactive Weather Map
Tropical Storm Tracking
New forecast layout! Learn more

10-Day Weather Forecast

Advertisements
Track Severe Weather on mobile